createdAt,value
2022-12-25T00:00:46.687Z,2.70
2022-12-25T00:02:48.874Z,2.61
2022-12-25T00:04:50.833Z,2.56
2022-12-25T00:06:52.612Z,2.62
2022-12-25T00:08:54.269Z,2.66
2022-12-25T00:11:04.376Z,2.66
2022-12-25T00:13:06.189Z,2.75
2022-12-25T00:15:08.197Z,2.79
2022-12-25T00:17:10.165Z,2.75
2022-12-25T00:19:11.917Z,2.88
2022-12-25T00:21:14.415Z,2.96
2022-12-25T00:23:16.315Z,2.91
2022-12-25T00:25:18.253Z,2.76
2022-12-25T00:27:19.969Z,2.62
2022-12-25T00:29:21.745Z,2.56
2022-12-25T00:31:24.924Z,2.84
2022-12-25T00:33:26.671Z,3.00
2022-12-25T00:35:28.661Z,3.09
2022-12-25T00:37:30.527Z,3.20
2022-12-25T00:39:32.204Z,3.12
2022-12-25T00:41:34.490Z,2.93
2022-12-25T00:43:36.728Z,3.24
2022-12-25T00:45:38.458Z,3.30
2022-12-25T00:47:40.423Z,3.34
2022-12-25T00:49:42.203Z,3.40
2022-12-25T00:51:43.879Z,3.29
2022-12-25T00:53:45.739Z,3.31
2022-12-25T00:55:54.645Z,3.34
2022-12-25T00:57:56.341Z,3.35
2022-12-25T00:59:58.179Z,3.33
2022-12-25T01:02:00.693Z,3.33
2022-12-25T01:04:02.445Z,3.31
2022-12-25T01:06:06.674Z,3.42
2022-12-25T01:08:08.894Z,3.39
2022-12-25T01:10:11.336Z,3.43
2022-12-25T01:12:13.169Z,3.28
2022-12-25T01:14:15.306Z,3.16
2022-12-25T01:16:17.151Z,3.25
2022-12-25T01:18:19.868Z,3.20
2022-12-25T01:20:21.765Z,3.12
2022-12-25T01:22:23.451Z,3.26
2022-12-25T01:24:25.180Z,3.12
2022-12-25T01:26:27.825Z,3.18
2022-12-25T01:28:29.516Z,3.06
2022-12-25T01:30:31.418Z,2.98
2022-12-25T01:32:33.298Z,3.07
2022-12-25T01:34:35.111Z,3.16
2022-12-25T01:36:37.015Z,3.16
2022-12-25T01:38:38.965Z,3.30
2022-12-25T01:40:41.093Z,3.33
2022-12-25T01:42:43.457Z,3.33
2022-12-25T01:44:48.252Z,3.29
2022-12-25T01:46:49.931Z,3.24
2022-12-25T01:48:53.413Z,3.36
2022-12-25T01:51:23.236Z,2.71
2022-12-25T01:53:26.531Z,3.25
2022-12-25T01:55:28.557Z,3.32
2022-12-25T01:57:34.916Z,3.47
2022-12-25T01:59:36.668Z,3.61
2022-12-25T02:01:38.600Z,3.62
2022-12-25T02:03:40.509Z,3.58
2022-12-25T02:05:42.589Z,3.62
2022-12-25T02:07:46.443Z,3.57
2022-12-25T02:09:48.856Z,3.59
2022-12-25T02:11:50.536Z,3.43
2022-12-25T02:13:52.306Z,3.41
2022-12-25T02:16:15.742Z,3.67
2022-12-25T02:18:42.214Z,3.55
2022-12-25T02:21:01.517Z,3.35
2022-12-25T02:23:29.578Z,3.41
2022-12-25T02:25:37.217Z,3.52
2022-12-25T02:28:05.632Z,3.52
2022-12-25T02:30:10.407Z,3.44
2022-12-25T02:32:29.980Z,3.39
2022-12-25T02:34:46.432Z,3.44
2022-12-25T02:37:11.613Z,3.46
2022-12-25T02:39:33.688Z,3.26
2022-12-25T02:41:39.929Z,2.91
2022-12-25T02:43:45.833Z,3.37
2022-12-25T02:45:55.724Z,3.32
2022-12-25T02:47:57.902Z,3.19
2022-12-25T02:50:01.084Z,2.83
2022-12-25T02:52:09.522Z,3.00
2022-12-25T02:54:16.500Z,3.13
2022-12-25T02:56:20.137Z,3.19
2022-12-25T02:58:23.991Z,3.14
2022-12-25T03:00:26.090Z,2.82
2022-12-25T03:02:30.904Z,2.83
2022-12-25T03:04:33.786Z,2.87
2022-12-25T03:06:38.665Z,2.80
2022-12-25T03:08:43.251Z,3.00
2022-12-25T03:10:50.322Z,2.93
2022-12-25T03:12:56.630Z,3.27
2022-12-25T03:14:58.443Z,3.39
2022-12-25T03:17:00.788Z,3.38
2022-12-25T03:19:03.119Z,3.30
2022-12-25T03:21:05.142Z,3.09
2022-12-25T03:23:08.406Z,3.15
2022-12-25T03:25:10.815Z,3.14
2022-12-25T03:27:12.521Z,3.36
2022-12-25T03:29:14.211Z,3.43
2022-12-25T03:31:43.235Z,3.19
2022-12-25T03:34:09.731Z,3.27
2022-12-25T03:36:29.321Z,3.46
2022-12-25T03:38:43.102Z,3.38
2022-12-25T03:40:56.719Z,3.57
2022-12-25T03:43:21.141Z,3.59
2022-12-25T03:45:26.705Z,3.60
2022-12-25T03:47:35.823Z,3.66
2022-12-25T03:49:46.549Z,3.73
2022-12-25T03:51:51.690Z,3.72
2022-12-25T03:54:04.215Z,3.38
2022-12-25T03:56:07.253Z,3.41
2022-12-25T03:58:20.608Z,3.70
2022-12-25T04:00:22.505Z,3.56
2022-12-25T04:02:24.545Z,3.44
2022-12-25T04:04:26.407Z,3.30
2022-12-25T04:06:28.388Z,3.23
2022-12-25T04:08:30.345Z,3.12
2022-12-25T04:10:32.037Z,3.11
2022-12-25T04:12:34.033Z,3.41
2022-12-25T04:14:35.762Z,3.58
2022-12-25T04:16:37.491Z,3.55
2022-12-25T04:18:39.576Z,3.29
2022-12-25T04:20:41.302Z,3.33
2022-12-25T04:22:42.966Z,3.39
2022-12-25T04:24:44.964Z,3.41
2022-12-25T04:26:46.692Z,3.41
2022-12-25T04:28:48.420Z,3.42
2022-12-25T04:30:50.209Z,3.61
2022-12-25T04:32:57.816Z,3.61
2022-12-25T04:34:59.508Z,3.56
2022-12-25T04:37:01.461Z,3.44
2022-12-25T04:39:03.306Z,3.24
2022-12-25T04:41:05.908Z,3.46
2022-12-25T04:43:07.798Z,3.62
2022-12-25T04:45:10.190Z,3.63
2022-12-25T04:47:13.037Z,3.61
2022-12-25T04:49:14.845Z,3.43
2022-12-25T04:51:19.794Z,3.68
2022-12-25T04:53:21.526Z,3.51
2022-12-25T04:55:23.386Z,3.69
2022-12-25T04:57:25.408Z,3.59
2022-12-25T04:59:27.091Z,3.67
2022-12-25T05:01:29.207Z,3.82
2022-12-25T05:03:31.184Z,3.63
2022-12-25T05:05:32.894Z,3.70
2022-12-25T05:07:34.717Z,3.87
2022-12-25T05:09:36.486Z,3.84
2022-12-25T05:11:38.305Z,3.95
2022-12-25T05:13:40.199Z,3.88
2022-12-25T05:15:43.023Z,4.06
2022-12-25T05:17:44.747Z,3.92
2022-12-25T05:19:46.608Z,4.04
2022-12-25T05:21:48.396Z,3.85
2022-12-25T05:23:51.693Z,3.74
2022-12-25T05:25:53.639Z,3.86
2022-12-25T05:27:55.384Z,3.77
2022-12-25T05:29:57.048Z,3.74
2022-12-25T05:31:59.021Z,3.61
2022-12-25T05:34:00.751Z,3.71
2022-12-25T05:36:05.000Z,3.61
2022-12-25T05:38:08.335Z,3.84
2022-12-25T05:40:10.539Z,3.71
2022-12-25T05:42:12.230Z,3.57
2022-12-25T05:44:14.516Z,3.40
2022-12-25T05:46:16.520Z,3.53
2022-12-25T05:48:18.252Z,3.55
2022-12-25T05:50:20.153Z,3.42
2022-12-25T05:52:21.939Z,3.59
2022-12-25T05:54:23.614Z,3.58
2022-12-25T05:56:25.378Z,3.66
2022-12-25T05:58:27.246Z,3.63
2022-12-25T06:00:29.030Z,3.72
2022-12-25T06:02:31.005Z,3.75
2022-12-25T06:04:33.131Z,3.77
2022-12-25T06:06:34.806Z,3.74
2022-12-25T06:08:37.107Z,3.70
2022-12-25T06:10:38.885Z,3.74
2022-12-25T06:12:40.639Z,3.69
2022-12-25T06:14:42.423Z,3.75
2022-12-25T06:16:44.205Z,3.78
2022-12-25T06:18:49.026Z,3.70
2022-12-25T06:20:50.888Z,3.81
2022-12-25T06:22:52.640Z,3.94
2022-12-25T06:24:54.483Z,3.85
2022-12-25T06:26:56.200Z,3.62
2022-12-25T06:28:57.994Z,3.72
2022-12-25T06:30:59.684Z,3.88
2022-12-25T06:33:01.340Z,3.89
2022-12-25T06:35:03.111Z,3.87
2022-12-25T06:37:04.939Z,3.71
2022-12-25T06:39:06.764Z,3.91
2022-12-25T06:41:11.036Z,4.06
2022-12-25T06:43:12.785Z,4.16
2022-12-25T06:45:14.583Z,3.82
2022-12-25T06:47:16.409Z,4.19
2022-12-25T06:49:18.096Z,4.31
2022-12-25T06:51:25.214Z,4.40
2022-12-25T06:53:26.949Z,4.41
2022-12-25T06:55:28.636Z,4.32
2022-12-25T06:57:30.486Z,4.40
2022-12-25T06:59:32.393Z,4.06
2022-12-25T07:01:38.360Z,4.30
2022-12-25T07:03:40.294Z,4.24
2022-12-25T07:05:42.029Z,4.49
2022-12-25T07:07:43.730Z,4.55
2022-12-25T07:09:45.649Z,4.56
2022-12-25T07:11:47.432Z,4.51
2022-12-25T07:13:49.332Z,4.51
2022-12-25T07:15:59.448Z,4.43
2022-12-25T07:18:01.279Z,4.43
2022-12-25T07:20:03.103Z,4.55
2022-12-25T07:22:05.007Z,4.65
2022-12-25T07:24:07.207Z,4.67
2022-12-25T07:26:10.888Z,4.54
2022-12-25T07:28:12.552Z,4.50
2022-12-25T07:30:14.620Z,4.48
2022-12-25T07:32:16.495Z,4.57
2022-12-25T07:34:19.143Z,4.54
2022-12-25T07:36:21.176Z,4.57
2022-12-25T07:38:22.886Z,4.69
2022-12-25T07:40:24.600Z,4.73
2022-12-25T07:42:26.285Z,4.87
2022-12-25T07:44:28.056Z,4.79
2022-12-25T07:46:30.118Z,4.93
2022-12-25T07:48:32.399Z,4.78
2022-12-25T07:50:34.405Z,4.82
2022-12-25T07:52:43.038Z,4.69
2022-12-25T07:54:45.217Z,4.90
2022-12-25T07:56:51.131Z,4.91
2022-12-25T07:58:52.913Z,4.94
2022-12-25T08:00:54.875Z,4.95
2022-12-25T08:02:56.939Z,5.05
2022-12-25T08:04:58.962Z,4.65
2022-12-25T08:07:00.781Z,4.51
2022-12-25T08:09:07.764Z,4.40
2022-12-25T08:11:10.456Z,4.52
2022-12-25T08:13:14.636Z,4.58
2022-12-25T08:15:16.548Z,4.60
2022-12-25T08:17:18.257Z,4.67
2022-12-25T08:19:19.973Z,4.68
2022-12-25T08:21:21.731Z,4.49
2022-12-25T08:23:23.475Z,4.57
2022-12-25T08:25:25.240Z,4.70
2022-12-25T08:27:26.903Z,4.73
2022-12-25T08:29:28.673Z,4.46
2022-12-25T08:31:30.870Z,4.58
2022-12-25T08:33:32.594Z,4.58
2022-12-25T08:35:35.466Z,4.62
2022-12-25T08:37:37.297Z,4.77
2022-12-25T08:39:38.979Z,4.76
2022-12-25T08:41:41.004Z,4.84
2022-12-25T08:43:43.337Z,4.98
2022-12-25T08:45:47.532Z,4.90
2022-12-25T08:47:54.428Z,5.02
2022-12-25T08:49:56.314Z,4.84
2022-12-25T08:51:58.066Z,4.85
2022-12-25T08:54:01.130Z,4.97
2022-12-25T08:56:07.084Z,5.25
2022-12-25T08:58:09.261Z,5.42
2022-12-25T09:00:11.524Z,5.42
2022-12-25T09:02:13.421Z,5.43
2022-12-25T09:04:15.279Z,5.39
2022-12-25T09:06:17.560Z,5.23
2022-12-25T09:08:19.600Z,5.35
2022-12-25T09:10:21.653Z,5.51
2022-12-25T09:12:23.681Z,5.59
2022-12-25T09:14:25.580Z,5.58
2022-12-25T09:16:27.416Z,5.34
2022-12-25T09:18:29.446Z,5.50
2022-12-25T09:20:31.442Z,5.41
2022-12-25T09:22:34.720Z,5.20
2022-12-25T09:24:36.710Z,5.08
2022-12-25T09:26:38.474Z,5.14
2022-12-25T09:28:45.117Z,5.21
2022-12-25T09:30:51.862Z,5.15
2022-12-25T09:32:53.827Z,4.97
2022-12-25T09:34:55.605Z,5.16
2022-12-25T09:36:57.411Z,5.11
2022-12-25T09:38:59.211Z,5.00
2022-12-25T09:41:16.845Z,5.26
2022-12-25T09:43:21.017Z,5.17
2022-12-25T09:45:37.838Z,5.20
2022-12-25T09:47:42.990Z,5.04
2022-12-25T09:49:47.758Z,5.29
2022-12-25T09:51:57.195Z,5.29
2022-12-25T09:54:05.036Z,5.19
2022-12-25T09:56:16.845Z,5.21
2022-12-25T09:58:18.726Z,5.25
2022-12-25T10:00:23.022Z,5.27
2022-12-25T10:03:00.855Z,5.31
2022-12-25T10:05:31.803Z,5.34
2022-12-25T10:07:55.132Z,5.47
2022-12-25T10:10:02.771Z,5.70
2022-12-25T10:12:28.248Z,5.77
2022-12-25T10:15:01.977Z,5.86
2022-12-25T10:17:18.801Z,5.82
2022-12-25T10:19:35.233Z,5.69
2022-12-25T10:21:37.516Z,5.64
2022-12-25T10:23:48.200Z,5.63
2022-12-25T10:25:51.736Z,5.61
2022-12-25T10:27:58.347Z,5.48
2022-12-25T10:30:02.521Z,5.57
2022-12-25T10:32:04.564Z,5.57
2022-12-25T10:34:06.960Z,5.43
2022-12-25T10:36:09.279Z,5.43
2022-12-25T10:38:16.658Z,5.43
2022-12-25T10:40:28.074Z,5.48
2022-12-25T10:42:42.689Z,5.55
2022-12-25T10:45:08.367Z,5.51
2022-12-25T10:47:10.311Z,5.58
2022-12-25T10:49:16.110Z,5.73
2022-12-25T10:51:38.648Z,5.90
2022-12-25T10:53:43.213Z,5.77
2022-12-25T10:56:01.351Z,5.88
2022-12-25T10:58:03.052Z,5.59
2022-12-25T11:00:05.982Z,5.36
2022-12-25T11:02:28.208Z,5.48
2022-12-25T11:04:34.961Z,5.30
2022-12-25T11:06:36.761Z,5.20
2022-12-25T11:08:38.561Z,5.27
2022-12-25T11:10:41.084Z,5.26
2022-12-25T11:12:45.481Z,5.27
2022-12-25T11:14:57.686Z,5.30
2022-12-25T11:17:09.803Z,5.44
2022-12-25T11:19:26.702Z,5.61
2022-12-25T11:21:31.106Z,5.66
2022-12-25T11:23:32.942Z,5.86
2022-12-25T11:25:34.871Z,5.92
2022-12-25T11:27:36.895Z,5.77
2022-12-25T11:29:50.788Z,5.91
2022-12-25T11:31:54.741Z,5.82
2022-12-25T11:33:56.610Z,5.70
2022-12-25T11:36:06.398Z,5.84
2022-12-25T11:38:08.738Z,5.69
2022-12-25T11:40:23.882Z,5.55
2022-12-25T11:42:37.327Z,5.62
2022-12-25T11:44:57.107Z,5.65
2022-12-25T11:47:08.275Z,5.65
2022-12-25T11:49:16.352Z,5.82
2022-12-25T11:51:20.002Z,6.00
2022-12-25T11:53:33.745Z,5.94
2022-12-25T11:55:45.392Z,6.00
2022-12-25T11:57:53.657Z,6.07
2022-12-25T12:00:08.696Z,6.23
2022-12-25T12:02:26.984Z,6.10
2022-12-25T12:04:40.317Z,6.05
2022-12-25T12:07:08.577Z,5.74
2022-12-25T12:09:40.935Z,5.59
2022-12-25T12:11:51.897Z,5.53
2022-12-25T12:14:17.083Z,5.49
2022-12-25T12:16:19.139Z,5.44
2022-12-25T12:18:26.802Z,5.38
2022-12-25T12:20:32.282Z,5.43
2022-12-25T12:22:34.106Z,5.36
2022-12-25T12:24:42.819Z,5.44
2022-12-25T12:26:47.394Z,5.50
2022-12-25T12:28:51.654Z,5.69
2022-12-25T12:31:03.703Z,5.81
2022-12-25T12:33:07.941Z,5.58
2022-12-25T12:35:38.289Z,5.50
2022-12-25T12:37:42.110Z,5.28
2022-12-25T12:39:44.815Z,5.24
2022-12-25T12:41:49.117Z,5.50
2022-12-25T12:44:03.180Z,5.37
2022-12-25T12:46:31.000Z,5.46
2022-12-25T12:48:42.424Z,5.60
2022-12-25T12:50:44.227Z,5.37
2022-12-25T12:52:46.011Z,5.44
2022-12-25T12:55:04.688Z,5.65
2022-12-25T12:57:24.025Z,5.49
2022-12-25T12:59:27.073Z,5.61
2022-12-25T13:02:20.452Z,5.57
2022-12-25T13:04:43.439Z,5.57
2022-12-25T13:06:58.960Z,5.52
2022-12-25T13:09:03.689Z,5.56
2022-12-25T13:11:15.014Z,5.63
2022-12-25T13:13:30.105Z,5.52
2022-12-25T13:15:34.902Z,5.76
2022-12-25T13:17:37.307Z,5.65
2022-12-25T13:19:43.124Z,5.63
2022-12-25T13:22:02.105Z,5.64
2022-12-25T13:24:19.798Z,5.68
2022-12-25T13:26:21.516Z,5.52
2022-12-25T13:28:33.833Z,5.64
2022-12-25T13:30:36.028Z,5.58
2022-12-25T13:32:37.910Z,5.66
2022-12-25T13:34:42.436Z,5.64
2022-12-25T13:36:44.583Z,5.39
2022-12-25T13:38:49.220Z,5.68
2022-12-25T13:40:56.545Z,5.38
2022-12-25T13:43:00.734Z,5.52
2022-12-25T13:45:04.368Z,5.28
2022-12-25T13:47:23.011Z,4.36
2022-12-25T13:49:25.128Z,5.24
2022-12-25T13:51:27.928Z,5.44
2022-12-25T13:53:29.626Z,5.33
2022-12-25T13:55:33.984Z,5.22
2022-12-25T13:57:38.932Z,5.46
2022-12-25T13:59:44.505Z,5.50
2022-12-25T14:01:46.996Z,5.37
2022-12-25T14:03:48.880Z,5.09
2022-12-25T14:05:59.451Z,5.18
2022-12-25T14:08:03.601Z,5.41
2022-12-25T14:10:06.314Z,5.23
2022-12-25T14:12:10.739Z,5.29
2022-12-25T14:14:20.429Z,5.31
2022-12-25T14:16:23.307Z,5.38
2022-12-25T14:18:26.112Z,5.19
2022-12-25T14:20:31.152Z,5.19
2022-12-25T14:22:32.889Z,5.13
2022-12-25T14:24:35.139Z,5.04
2022-12-25T14:26:37.088Z,5.15
2022-12-25T14:28:38.804Z,5.27
2022-12-25T14:30:42.799Z,5.14
2022-12-25T14:32:48.783Z,5.26
2022-12-25T14:34:54.803Z,5.14
2022-12-25T14:36:56.920Z,5.21
2022-12-25T14:39:01.397Z,5.33
2022-12-25T14:41:06.290Z,5.24
2022-12-25T14:43:27.366Z,5.26
2022-12-25T14:45:32.311Z,5.26
2022-12-25T14:47:50.097Z,5.02
2022-12-25T14:49:51.821Z,5.14
2022-12-25T14:51:53.545Z,4.98
2022-12-25T14:53:58.163Z,5.12
2022-12-25T14:56:00.259Z,5.14
2022-12-25T14:58:05.517Z,5.06
2022-12-25T15:00:20.158Z,5.29
2022-12-25T15:02:22.110Z,5.28
2022-12-25T15:04:26.171Z,5.17
2022-12-25T15:06:28.892Z,5.31
2022-12-25T15:08:32.464Z,5.23
2022-12-25T15:12:56.552Z,5.23
2022-12-25T15:14:58.260Z,5.35
2022-12-25T15:17:01.500Z,5.42
2022-12-25T15:19:03.299Z,5.40
2022-12-25T15:21:05.266Z,5.32
2022-12-25T15:23:21.156Z,5.26
2022-12-25T15:25:23.403Z,5.48
2022-12-25T15:27:25.057Z,5.43
2022-12-25T15:30:07.250Z,5.16
2022-12-25T15:31:48.814Z,5.39
2022-12-25T15:33:51.304Z,5.38
2022-12-25T15:35:53.350Z,5.40
2022-12-25T15:37:55.031Z,5.32
2022-12-25T15:39:57.505Z,5.32
2022-12-25T15:42:00.167Z,5.17
2022-12-25T15:44:02.253Z,5.20
2022-12-25T15:46:04.118Z,5.22
2022-12-25T15:48:06.374Z,5.29
2022-12-25T15:50:09.735Z,5.16
2022-12-25T15:52:14.938Z,5.00
2022-12-25T15:54:16.765Z,5.12
2022-12-25T15:56:19.013Z,5.10
2022-12-25T15:58:20.760Z,4.98
2022-12-25T16:00:23.285Z,4.90
2022-12-25T16:02:25.246Z,4.89
2022-12-25T16:04:28.577Z,5.02
2022-12-25T16:06:30.740Z,4.89
2022-12-25T16:08:32.385Z,4.95
2022-12-25T16:10:38.653Z,4.98
2022-12-25T16:12:41.079Z,4.92
2022-12-25T16:14:42.770Z,4.89
2022-12-25T16:16:44.465Z,4.86
2022-12-25T16:18:47.592Z,5.09
2022-12-25T16:20:53.916Z,5.01
2022-12-25T16:22:55.755Z,5.05
2022-12-25T16:24:57.589Z,5.00
2022-12-25T16:26:59.309Z,4.84
2022-12-25T16:29:06.690Z,4.97
2022-12-25T16:31:09.116Z,4.66
2022-12-25T16:33:11.209Z,4.88
2022-12-25T16:35:12.930Z,4.88
2022-12-25T16:37:14.920Z,4.72
2022-12-25T16:39:16.589Z,4.87
2022-12-25T16:41:18.295Z,4.74
2022-12-25T16:43:23.913Z,4.84
2022-12-25T16:45:26.043Z,4.76
2022-12-25T16:47:27.785Z,4.89
2022-12-25T16:49:29.956Z,4.74
2022-12-25T16:51:31.847Z,4.61
2022-12-25T16:53:33.503Z,4.59
2022-12-25T16:55:36.566Z,4.43
2022-12-25T16:57:38.311Z,4.61
2022-12-25T16:59:40.169Z,4.47
2022-12-25T17:01:42.770Z,4.40
2022-12-25T17:03:44.796Z,4.52
2022-12-25T17:05:46.549Z,4.55
2022-12-25T17:07:48.440Z,4.48
2022-12-25T17:09:50.231Z,4.37
2022-12-25T17:11:51.988Z,4.13
2022-12-25T17:13:54.509Z,4.41
2022-12-25T17:15:56.285Z,4.28
2022-12-25T17:17:57.966Z,4.31
2022-12-25T17:20:00.026Z,4.38
2022-12-25T17:22:01.776Z,4.32
2022-12-25T17:24:04.376Z,4.31
2022-12-25T17:26:06.468Z,4.28
2022-12-25T17:28:08.182Z,4.27
2022-12-25T17:30:10.325Z,4.37
2022-12-25T17:32:12.984Z,4.26
2022-12-25T17:34:14.673Z,4.36
2022-12-25T17:36:19.030Z,4.45
2022-12-25T17:38:21.034Z,4.48
2022-12-25T17:40:22.714Z,4.53
2022-12-25T17:42:24.418Z,4.50
2022-12-25T17:44:26.326Z,4.33
2022-12-25T17:46:29.996Z,4.13
2022-12-25T17:48:31.748Z,4.22
2022-12-25T17:50:37.487Z,3.92
2022-12-25T17:52:42.934Z,4.09
2022-12-25T17:54:44.619Z,4.15
2022-12-25T17:56:46.378Z,4.18
2022-12-25T17:58:53.006Z,4.16
2022-12-25T18:00:55.135Z,4.10
2022-12-25T18:02:57.809Z,4.18
2022-12-25T18:04:59.670Z,4.33
2022-12-25T18:07:01.379Z,4.20
2022-12-25T18:09:05.076Z,4.39
2022-12-25T18:11:08.546Z,4.36
2022-12-25T18:13:11.709Z,4.31
2022-12-25T18:15:13.555Z,4.10
2022-12-25T18:17:15.215Z,4.20
2022-12-25T18:19:16.951Z,4.37
2022-12-25T18:21:19.087Z,4.38
2022-12-25T18:23:21.061Z,4.24
2022-12-25T18:25:22.819Z,4.01
2022-12-25T18:27:24.889Z,4.02
2022-12-25T18:29:26.557Z,4.31
2022-12-25T18:31:29.143Z,4.13
2022-12-25T18:33:31.118Z,4.08
2022-12-25T18:35:32.897Z,4.12
2022-12-25T18:37:39.872Z,4.10
2022-12-25T18:39:42.300Z,3.80
2022-12-25T18:41:44.115Z,3.89
2022-12-25T18:43:52.812Z,3.88
2022-12-25T18:45:58.297Z,3.97
2022-12-25T18:48:00.398Z,4.16
2022-12-25T18:50:02.111Z,4.06
2022-12-25T18:52:49.609Z,4.11
2022-12-25T18:54:25.680Z,4.09
2022-12-25T18:56:27.352Z,3.91
2022-12-25T18:58:29.086Z,3.94
2022-12-25T19:00:30.879Z,3.78
2022-12-25T19:02:32.798Z,3.89
2022-12-25T19:04:35.928Z,3.74
2022-12-25T19:06:37.677Z,3.67
2022-12-25T19:08:39.374Z,3.78
2022-12-25T19:10:43.801Z,3.66
2022-12-25T19:12:45.514Z,3.61
2022-12-25T19:14:48.339Z,3.52
2022-12-25T19:16:50.427Z,3.64
2022-12-25T19:18:52.203Z,3.51
2022-12-25T19:20:53.896Z,3.68
2022-12-25T19:22:55.732Z,3.62
2022-12-25T19:24:57.424Z,3.63
2022-12-25T19:26:59.231Z,3.70
2022-12-25T19:29:01.080Z,3.85
2022-12-25T19:31:03.933Z,3.78
2022-12-25T19:33:05.652Z,3.89
2022-12-25T19:35:07.679Z,3.81
2022-12-25T19:37:09.385Z,3.93
2022-12-25T19:39:11.788Z,3.90
2022-12-25T19:41:17.522Z,3.77
2022-12-25T19:43:19.241Z,3.95
2022-12-25T19:45:21.029Z,3.86
2022-12-25T19:47:23.095Z,3.90
2022-12-25T19:49:24.829Z,3.92
2022-12-25T19:51:28.581Z,3.65
2022-12-25T19:53:31.093Z,3.67
2022-12-25T19:55:32.932Z,3.68
2022-12-25T19:57:34.703Z,3.58
2022-12-25T19:59:36.473Z,3.64
2022-12-25T20:01:38.909Z,3.70
2022-12-25T20:03:45.838Z,3.64
2022-12-25T20:05:48.213Z,3.68
2022-12-25T20:07:49.917Z,3.59
2022-12-25T20:09:51.652Z,3.40
2022-12-25T20:11:53.408Z,3.53
2022-12-25T20:13:55.604Z,3.46
2022-12-25T20:16:01.044Z,3.52
2022-12-25T20:18:03.045Z,3.62
2022-12-25T20:20:05.636Z,3.74
2022-12-25T20:22:07.568Z,3.74
2022-12-25T20:24:10.247Z,3.52
2022-12-25T20:26:13.051Z,3.76
2022-12-25T20:28:16.892Z,3.75
2022-12-25T20:30:18.748Z,3.53
2022-12-25T20:32:20.551Z,3.87
2022-12-25T20:34:22.339Z,3.73
2022-12-25T20:36:24.156Z,3.67
2022-12-25T20:38:25.877Z,3.61
2022-12-25T20:40:27.692Z,3.70
2022-12-25T20:42:34.422Z,3.34
2022-12-25T20:44:36.431Z,3.78
2022-12-25T20:46:38.143Z,3.72
2022-12-25T20:48:40.313Z,3.61
2022-12-25T20:50:41.967Z,3.80
2022-12-25T20:52:43.660Z,3.46
2022-12-25T20:54:45.615Z,3.61
2022-12-25T20:56:48.867Z,3.67
2022-12-25T20:58:58.865Z,3.75
2022-12-25T21:01:13.800Z,3.58
2022-12-25T21:03:15.633Z,3.77
2022-12-25T21:05:17.448Z,3.73
2022-12-25T21:07:19.290Z,3.75
2022-12-25T21:09:20.975Z,3.62
2022-12-25T21:11:22.731Z,3.53
2022-12-25T21:13:25.481Z,3.61
2022-12-25T21:15:27.162Z,3.69
2022-12-25T21:17:28.823Z,3.67
2022-12-25T21:19:30.831Z,3.49
2022-12-25T21:21:32.525Z,3.68
2022-12-25T21:23:35.705Z,3.55
2022-12-25T21:25:38.211Z,3.56
2022-12-25T21:27:39.878Z,3.70
2022-12-25T21:29:41.700Z,3.64
2022-12-25T21:31:43.808Z,3.69
2022-12-25T21:33:46.047Z,3.69
2022-12-25T21:35:48.201Z,3.49
2022-12-25T21:37:50.149Z,3.47
2022-12-25T21:39:51.972Z,3.71
2022-12-25T21:41:53.720Z,3.74
2022-12-25T21:43:56.224Z,3.71
2022-12-25T21:46:02.198Z,3.80
2022-12-25T21:48:04.214Z,3.90
2022-12-25T21:50:06.506Z,3.76
2022-12-25T21:52:08.172Z,3.67
2022-12-25T21:54:11.051Z,3.66
2022-12-25T21:56:13.000Z,3.78
2022-12-25T21:58:14.733Z,3.59
2022-12-25T22:00:16.553Z,3.76
2022-12-25T22:02:18.461Z,3.62
2022-12-25T22:04:22.712Z,3.64
2022-12-25T22:06:24.377Z,3.58
2022-12-25T22:08:30.460Z,3.54
2022-12-25T22:10:32.131Z,3.57
2022-12-25T22:12:34.552Z,3.61
2022-12-25T22:14:51.629Z,3.56
2022-12-25T22:16:55.381Z,3.49
2022-12-25T22:18:57.131Z,3.60
2022-12-25T22:20:58.803Z,3.46
2022-12-25T22:23:00.580Z,3.50
2022-12-25T22:25:04.590Z,3.57
2022-12-25T22:27:06.355Z,3.55
2022-12-25T22:29:08.074Z,3.50
2022-12-25T22:31:09.838Z,3.66
2022-12-25T22:33:11.869Z,3.50
2022-12-25T22:35:14.310Z,3.64
2022-12-25T22:37:18.013Z,3.62
2022-12-25T22:39:19.705Z,3.62
2022-12-25T22:41:21.384Z,3.52
2022-12-25T22:43:32.545Z,3.50
2022-12-25T22:45:44.906Z,3.52
2022-12-25T22:47:46.571Z,3.28
2022-12-25T22:49:49.359Z,3.41
2022-12-25T22:51:52.457Z,3.58
2022-12-25T22:53:57.511Z,3.56
2022-12-25T22:56:03.546Z,3.44
2022-12-25T22:58:05.734Z,3.49
2022-12-25T23:00:08.139Z,3.52
2022-12-25T23:02:10.044Z,3.50
2022-12-25T23:04:13.130Z,3.54
2022-12-25T23:06:14.839Z,3.47
2022-12-25T23:08:16.554Z,3.41
2022-12-25T23:10:18.247Z,3.43
2022-12-25T23:12:19.954Z,3.58
2022-12-25T23:14:21.711Z,3.49
2022-12-25T23:16:24.177Z,3.40
2022-12-25T23:18:25.918Z,3.42
2022-12-25T23:20:27.669Z,3.40
2022-12-25T23:22:29.670Z,3.25
2022-12-25T23:24:31.354Z,3.34
2022-12-25T23:26:33.053Z,3.38
2022-12-25T23:28:42.371Z,3.59
2022-12-25T23:30:44.025Z,3.49
2022-12-25T23:32:45.755Z,3.35
2022-12-25T23:34:47.716Z,3.46
2022-12-25T23:36:49.378Z,3.42
2022-12-25T23:38:51.172Z,3.58
2022-12-25T23:40:53.002Z,3.52
2022-12-25T23:42:54.738Z,3.46
2022-12-25T23:44:56.408Z,3.63
2022-12-25T23:46:58.466Z,3.60
2022-12-25T23:49:00.239Z,3.31
2022-12-25T23:51:06.401Z,3.54
2022-12-25T23:53:08.361Z,3.58
2022-12-25T23:55:10.147Z,3.71
2022-12-25T23:57:11.823Z,3.70
2022-12-25T23:59:14.468Z,3.57
